Time;durP1;ratioP1;P1;durP2;ratioP2;P2;SDS_P1;SDS_P2;PMS_P1;PMS_P2;Temp;Humidity;BMP_temperature;BMP_pressure;BME280_temperature;BME280_humidity;BME280_pressure;Samples;Min_cycle;Max_cycle;Signal;HPM_P1;HPM_P2
2023/08/08 00:02:00;;;;;;;15.07;6.03;;;;;;;21.22;59.50;100011.33;125578;1099;104162;-85
2023/08/08 00:04:29;;;;;;;16.33;5.90;;;;;;;21.23;59.84;100010.44;125563;1098;102112;-88
2023/08/08 00:06:57;;;;;;;13.97;5.70;;;;;;;21.16;59.29;100005.19;126371;1098;104655;-88
2023/08/08 00:09:26;;;;;;;12.97;5.30;;;;;;;21.12;59.37;100000.80;125540;1099;102004;-85
2023/08/08 00:11:54;;;;;;;13.40;5.07;;;;;;;21.06;60.50;100002.69;125380;1099;102037;-84
2023/08/08 00:14:23;;;;;;;11.27;5.30;;;;;;;20.96;59.83;100005.49;125591;1099;101862;-85
2023/08/08 00:16:52;;;;;;;13.33;5.30;;;;;;;20.94;59.37;100028.65;125590;1099;104137;-85
2023/08/08 00:19:20;;;;;;;13.13;4.87;;;;;;;20.98;60.24;100035.68;125587;1099;104162;-84
2023/08/08 00:21:49;;;;;;;16.37;5.37;;;;;;;20.97;60.64;100038.37;125544;1099;101924;-84
2023/08/08 00:24:17;;;;;;;13.60;4.83;;;;;;;20.95;60.06;100038.39;125512;1099;104191;-86
2023/08/08 00:26:46;;;;;;;15.83;5.87;;;;;;;20.93;61.02;100042.00;125549;1098;104241;-84
2023/08/08 00:29:15;;;;;;;15.60;5.63;;;;;;;20.85;60.21;100035.88;125514;1099;104125;-83
2023/08/08 00:31:43;;;;;;;11.07;4.87;;;;;;;20.78;60.62;100033.29;125521;1099;104076;-82
2023/08/08 00:34:12;;;;;;;13.10;5.00;;;;;;;20.71;61.53;100034.30;125565;1099;104258;-85
2023/08/08 00:36:40;;;;;;;13.27;4.83;;;;;;;20.66;61.29;100028.13;125512;1099;104162;-83
2023/08/08 00:39:09;;;;;;;12.27;4.60;;;;;;;20.64;62.04;100024.57;125696;1099;102064;-85
2023/08/08 00:41:38;;;;;;;11.67;4.47;;;;;;;20.64;61.55;100022.81;125650;1099;101797;-84
2023/08/08 00:44:06;;;;;;;11.47;4.10;;;;;;;20.68;62.03;100034.34;125641;1099;104188;-84
2023/08/08 00:52:23;;;;;;;9.20;4.10;;;;;;;20.58;63.02;100017.52;125984;1102;102000;-84
2023/08/08 00:54:55;;;;;;;10.27;3.87;;;;;;;20.62;62.24;100013.93;125747;1102;102269;-84
2023/08/08 00:57:26;;;;;;;8.33;3.30;;;;;;;20.68;62.33;100010.34;125364;1102;101830;-87
2023/08/08 00:59:58;;;;;;;8.37;3.60;;;;;;;20.69;62.89;100003.22;125093;1102;102080;-87
2023/08/08 01:02:29;;;;;;;10.07;3.87;;;;;;;20.68;63.74;100004.11;124992;1102;104434;-88
2023/08/08 01:05:01;;;;;;;6.73;3.63;;;;;;;20.74;63.53;99991.59;126609;1101;101823;-88
2023/08/08 01:07:37;;;;;;;6.03;3.33;;;;;;;20.76;63.26;99984.45;124995;1102;102087;-86
2023/08/08 01:10:14;;;;;;;6.90;2.97;;;;;;;20.70;64.04;99984.53;125910;1102;104175;-86
2023/08/08 01:12:49;;;;;;;7.33;3.23;;;;;;;20.71;62.88;99991.64;125872;1102;102004;-87
2023/08/08 01:15:22;;;;;;;7.60;3.53;;;;;;;20.69;63.32;100001.42;125671;1102;101932;-84
2023/08/08 01:17:56;;;;;;;6.10;2.90;;;;;;;20.66;63.22;100006.80;125202;1102;104175;-85
2023/08/08 01:20:27;;;;;;;5.77;3.00;;;;;;;20.63;63.44;100014.80;125123;1102;104194;-85
2023/08/08 01:23:10;;;;;;;9.13;3.50;;;;;;;20.64;64.17;100027.23;124798;1102;101830;-83
2023/08/08 01:25:43;;;;;;;7.87;3.22;;;;;;;20.68;64.30;100023.67;124867;1102;104223;-86
2023/08/08 01:28:14;;;;;;;8.10;3.30;;;;;;;20.71;64.11;100036.06;124708;1102;102118;-84
2023/08/08 01:30:46;;;;;;;6.53;3.20;;;;;;;20.73;64.00;100039.61;124746;1102;102051;-84
2023/08/08 01:33:17;;;;;;;6.67;3.23;;;;;;;20.72;63.47;100049.37;124737;1102;101978;-81
2023/08/08 01:35:53;;;;;;;9.67;3.37;;;;;;;20.67;64.24;100066.34;124737;1102;102268;-83
2023/08/08 01:38:31;;;;;;;7.73;3.20;;;;;;;20.62;64.11;100061.03;124751;1102;102077;-84
2023/08/08 01:41:05;;;;;;;9.27;3.10;;;;;;;20.59;64.25;100069.07;124754;1102;102015;-82
2023/08/08 01:43:38;;;;;;;7.07;3.10;;;;;;;20.55;64.29;100077.99;124852;1102;104262;-83
2023/08/08 01:46:10;;;;;;;6.03;2.90;;;;;;;20.46;64.88;100085.20;124919;1102;104195;-82
2023/08/08 01:48:45;;;;;;;5.07;2.90;;;;;;;20.34;65.17;100080.02;125072;1105;101903;-81
2023/08/08 01:51:16;;;;;;;5.37;2.60;;;;;;;20.22;65.30;100082.81;125041;1102;102386;-81
2023/08/08 01:53:47;;;;;;;4.20;2.40;;;;;;;20.19;64.69;100090.83;125438;1102;104294;-83
2023/08/08 01:56:19;;;;;;;6.73;2.93;;;;;;;20.18;65.24;100086.39;125989;1102;102131;-84
2023/08/08 01:58:50;;;;;;;5.07;2.50;;;;;;;20.19;65.16;100090.83;125944;1102;101736;-84
2023/08/08 02:01:21;;;;;;;4.07;2.20;;;;;;;20.18;65.90;100076.64;125830;1102;101844;-86
2023/08/08 02:03:52;;;;;;;4.13;2.30;;;;;;;20.27;64.95;100073.88;126383;1102;102090;-84
2023/08/08 02:06:24;;;;;;;2.80;1.90;;;;;;;20.39;66.22;100069.30;125001;1102;101850;-83
2023/08/08 02:08:55;;;;;;;5.27;2.30;;;;;;;20.42;66.05;100080.80;124899;1103;104342;-83
2023/08/08 02:11:26;;;;;;;4.40;2.60;;;;;;;20.39;65.79;100088.83;124956;1102;102071;-81
2023/08/08 02:13:58;;;;;;;4.43;2.53;;;;;;;20.35;66.56;100111.09;124919;1102;101804;-81
2023/08/08 02:16:30;;;;;;;4.83;2.50;;;;;;;20.27;66.69;100115.60;124723;1105;104313;-80
2023/08/08 02:19:01;;;;;;;4.27;2.50;;;;;;;20.13;66.88;100120.19;124719;1102;104189;-80
2023/08/08 02:21:33;;;;;;;6.00;2.50;;;;;;;19.97;67.54;100115.00;124897;1105;104331;-78
2023/08/08 02:24:04;;;;;;;5.23;2.80;;;;;;;19.81;68.08;100116.05;124773;1102;104093;-78
2023/08/08 02:26:36;;;;;;;5.50;2.50;;;;;;;19.68;68.39;100115.20;124955;1102;102076;-80
2023/08/08 02:29:13;;;;;;;3.33;2.40;;;;;;;19.54;68.98;100118.87;124958;1102;101988;-82
2023/08/08 02:31:44;;;;;;;6.70;2.80;;;;;;;19.44;69.27;100132.25;125499;1102;101756;-81
2023/08/08 02:34:15;;;;;;;7.57;2.70;;;;;;;19.38;68.88;100146.47;124763;1102;104251;-83
2023/08/08 02:36:47;;;;;;;5.03;3.00;;;;;;;19.32;68.69;100155.39;124893;1104;104249;-80
2023/08/08 02:39:18;;;;;;;3.90;2.70;;;;;;;19.32;68.56;100167.78;124747;1102;104178;-80
2023/08/08 02:41:49;;;;;;;5.85;3.00;;;;;;;19.28;69.05;100180.23;124849;1102;104283;-80
2023/08/08 02:44:22;;;;;;;7.90;3.10;;;;;;;19.20;69.94;100163.43;124675;1102;101977;-79
2023/08/08 02:46:54;;;;;;;7.00;2.70;;;;;;;19.10;70.73;100169.67;124739;1102;102428;-79
2023/08/08 02:49:25;;;;;;;7.90;3.13;;;;;;;18.97;71.49;100169.72;124622;1102;101906;-79
2023/08/08 02:51:56;;;;;;;7.60;3.10;;;;;;;18.87;73.03;100175.98;124808;1102;102025;-78
2023/08/08 02:54:28;;;;;;;9.17;3.50;;;;;;;18.78;72.96;100171.53;124654;1105;104278;-78
2023/08/08 02:57:00;;;;;;;5.30;3.37;;;;;;;18.75;72.65;100168.02;124849;1102;104169;-78
2023/08/08 02:59:31;;;;;;;9.07;3.90;;;;;;;18.74;72.75;100155.60;124785;1101;104127;-77
2023/08/08 03:02:03;;;;;;;7.43;3.70;;;;;;;18.85;73.50;100160.04;124756;1102;104181;-78
2023/08/08 03:04:35;;;;;;;6.93;3.30;;;;;;;18.96;72.65;100172.38;124814;1102;104283;-78
2023/08/08 03:07:08;;;;;;;8.37;3.30;;;;;;;19.01;72.91;100182.13;124766;1102;104212;-79
2023/08/08 03:09:40;;;;;;;7.70;3.40;;;;;;;19.04;73.78;100183.87;124717;1102;104198;-77
2023/08/08 03:12:13;;;;;;;8.20;3.47;;;;;;;18.92;74.45;100184.81;124860;1102;101833;-78
2023/08/08 03:14:44;;;;;;;9.17;3.50;;;;;;;18.79;75.16;100175.06;124767;1101;104226;-79
2023/08/08 03:17:16;;;;;;;7.10;3.60;;;;;;;18.72;74.95;100178.66;124790;1102;104266;-78
2023/08/08 03:19:47;;;;;;;8.13;3.70;;;;;;;18.68;75.74;100199.02;124783;1102;104240;-79
2023/08/08 03:22:19;;;;;;;8.55;3.60;;;;;;;18.67;76.24;100203.45;124821;1102;101837;-77
2023/08/08 03:24:50;;;;;;;9.70;3.90;;;;;;;18.64;75.60;100192.83;124710;1102;104182;-79
2023/08/08 03:27:22;;;;;;;6.97;3.30;;;;;;;18.64;75.87;100190.17;124844;1102;104214;-79
2023/08/08 03:29:56;;;;;;;9.78;3.40;;;;;;;18.67;75.25;100187.52;124768;1102;101881;-78
2023/08/08 03:32:36;;;;;;;11.47;3.90;;;;;;;18.71;75.31;100185.72;124938;1102;102386;-78
2023/08/08 03:35:09;;;;;;;7.70;3.63;;;;;;;18.78;75.54;100189.27;125492;1102;101827;-78
2023/08/08 03:37:40;;;;;;;9.13;3.98;;;;;;;18.89;75.60;100178.64;124799;1102;104089;-78
2023/08/08 03:40:13;;;;;;;9.37;3.90;;;;;;;18.98;75.60;100174.16;124752;1102;102022;-78
2023/08/08 03:42:45;;;;;;;9.83;4.20;;;;;;;19.00;75.53;100167.05;124760;1101;102012;-79
2023/08/08 03:45:16;;;;;;;12.63;3.77;;;;;;;19.04;76.11;100168.81;124843;1102;104246;-79
2023/08/08 03:47:47;;;;;;;9.57;3.63;;;;;;;19.11;76.43;100174.98;124720;1102;102029;-78
2023/08/08 03:50:19;;;;;;;10.27;3.83;;;;;;;19.20;76.46;100171.41;124874;1102;102239;-79
2023/08/08 03:52:50;;;;;;;7.57;3.90;;;;;;;19.28;76.50;100161.61;124734;1102;104175;-79
2023/08/08 03:55:22;;;;;;;8.10;3.73;;;;;;;19.38;76.57;100158.02;125054;1099;102374;-78
2023/08/08 03:57:54;;;;;;;8.20;3.60;;;;;;;19.44;76.02;100162.39;125133;1099;103026;-77
2023/08/08 04:00:26;;;;;;;6.27;3.90;;;;;;;19.50;76.60;100182.77;125715;1099;104386;-77
2023/08/08 04:02:57;;;;;;;12.13;4.17;;;;;;;19.55;76.99;100186.28;125528;1099;104307;-77
2023/08/08 04:05:28;;;;;;;10.47;4.93;;;;;;;19.60;77.03;100186.25;126158;1098;104237;-78
2023/08/08 04:08:00;;;;;;;9.43;4.10;;;;;;;19.63;76.70;100192.42;125885;1099;102310;-78
2023/08/08 04:10:32;;;;;;;10.13;4.00;;;;;;;19.59;76.68;100198.69;126897;1099;101964;-77
2023/08/08 04:13:03;;;;;;;9.40;4.33;;;;;;;19.51;76.87;100205.80;126915;1098;101925;-78
2023/08/08 04:15:34;;;;;;;11.20;4.40;;;;;;;19.49;76.58;100204.94;125509;1099;104083;-77
2023/08/08 04:18:07;;;;;;;11.23;5.03;;;;;;;19.55;76.56;100216.42;126233;1099;104268;-77
2023/08/08 04:20:38;;;;;;;11.47;4.60;;;;;;;19.55;77.22;100210.23;125976;1099;104213;-77
2023/08/08 04:23:09;;;;;;;13.37;4.73;;;;;;;19.52;77.27;100212.91;125858;1099;101886;-77
2023/08/08 04:25:41;;;;;;;11.10;4.70;;;;;;;19.47;77.64;100222.70;126221;1099;104348;-77
2023/08/08 04:28:12;;;;;;;11.63;4.50;;;;;;;19.40;77.84;100238.69;125787;1099;104249;-77
2023/08/08 04:30:43;;;;;;;12.30;4.60;;;;;;;19.34;77.90;100238.72;125672;1099;104746;-78
2023/08/08 04:33:17;;;;;;;13.07;5.00;;;;;;;19.29;78.98;100240.52;126663;1099;102080;-77
2023/08/08 04:35:49;;;;;;;13.63;4.77;;;;;;;19.21;78.00;100229.91;126657;1098;101879;-78
2023/08/08 04:38:20;;;;;;;10.23;4.70;;;;;;;19.18;79.44;100237.91;126533;1099;101717;-78
2023/08/08 04:40:51;;;;;;;11.20;4.63;;;;;;;19.21;79.29;100247.63;126749;1098;104226;-79
2023/08/08 04:43:23;;;;;;;8.30;4.47;;;;;;;19.25;79.50;100248.52;127364;1098;104172;-77
2023/08/08 04:45:54;;;;;;;11.10;4.50;;;;;;;19.32;79.60;100245.84;126460;1099;101823;-79
2023/08/08 04:48:26;;;;;;;14.53;4.97;;;;;;;19.39;79.24;100246.68;126558;1099;101972;-78
2023/08/08 04:50:57;;;;;;;10.93;4.57;;;;;;;19.46;79.49;100245.77;125946;1099;101853;-77
2023/08/08 04:53:28;;;;;;;9.27;4.23;;;;;;;19.51;78.88;100251.95;125163;1099;104304;-74
2023/08/08 04:56:03;;;;;;;11.47;4.53;;;;;;;19.47;79.23;100226.23;125162;1099;104192;-77
2023/08/08 04:58:34;;;;;;;12.90;4.70;;;;;;;19.59;78.98;100238.60;125188;1098;104331;-74
2023/08/08 05:01:11;;;;;;;10.60;5.30;;;;;;;19.61;78.71;100242.12;124957;1099;102004;-73
2023/08/08 05:03:42;;;;;;;16.63;7.53;;;;;;;19.60;80.73;100258.11;124864;1099;101973;-74
2023/08/08 05:06:17;;;;;;;17.87;7.93;;;;;;;19.54;79.99;100261.67;124956;1099;104269;-75
2023/08/08 05:08:51;;;;;;;21.17;8.50;;;;;;;19.50;80.22;100267.92;124928;1099;101916;-76
2023/08/08 05:11:22;;;;;;;21.23;8.23;;;;;;;19.47;79.64;100279.45;124932;1099;102076;-75
2023/08/08 05:13:54;;;;;;;23.00;9.93;;;;;;;19.44;80.10;100284.78;124973;1099;104252;-80
2023/08/08 05:16:26;;;;;;;24.03;10.47;;;;;;;19.41;79.67;100274.16;125193;1099;101868;-76
2023/08/08 05:18:58;;;;;;;24.60;10.63;;;;;;;19.38;79.42;100276.83;125216;1099;104273;-77
2023/08/08 05:21:30;;;;;;;24.13;10.43;;;;;;;19.42;80.13;100280.38;125258;1099;104232;-76
2023/08/08 05:24:02;;;;;;;23.77;10.30;;;;;;;19.49;80.05;100282.11;126270;1098;104248;-78
2023/08/08 05:26:33;;;;;;;21.50;9.80;;;;;;;19.51;80.16;100286.55;124991;1098;104172;-76
2023/08/08 05:29:04;;;;;;;27.97;10.73;;;;;;;19.52;80.54;100285.63;125585;1098;104121;-78
2023/08/08 05:31:36;;;;;;;26.77;11.10;;;;;;;19.48;80.03;100291.00;125285;1099;104162;-77
2023/08/08 05:34:07;;;;;;;24.27;11.13;;;;;;;19.46;80.12;100292.77;125595;1099;104573;-79
2023/08/08 05:36:38;;;;;;;24.77;9.93;;;;;;;19.45;80.68;100294.55;125546;1099;102086;-83
2023/08/08 05:39:13;;;;;;;21.80;9.00;;;;;;;19.44;80.72;100287.45;127394;1098;101910;-79
2023/08/08 05:41:47;;;;;;;19.50;8.53;;;;;;;19.56;80.56;100281.20;126451;1098;101863;-82
2023/08/08 05:44:21;;;;;;;19.00;7.57;;;;;;;19.64;80.53;100274.05;125843;1102;104217;-78
2023/08/08 05:46:54;;;;;;;21.23;7.00;;;;;;;19.67;80.34;100271.37;124929;1102;104169;-78
2023/08/08 05:49:25;;;;;;;16.60;6.67;;;;;;;19.72;80.01;100279.34;125341;1099;104159;-80
2023/08/08 05:51:57;;;;;;;20.77;6.20;;;;;;;19.79;80.04;100274.89;126425;1098;102286;-79
2023/08/08 05:54:32;;;;;;;14.13;6.00;;;;;;;19.88;80.71;100277.50;125382;1099;102179;-79
2023/08/08 05:57:07;;;;;;;15.80;6.10;;;;;;;19.94;80.35;100277.45;126910;1098;101826;-82
2023/08/08 05:59:40;;;;;;;15.57;6.27;;;;;;;20.02;80.17;100270.30;125689;1099;102309;-83
2023/08/08 06:02:13;;;;;;;19.33;6.87;;;;;;;20.13;80.34;100274.67;126877;1099;104259;-79
2023/08/08 06:04:46;;;;;;;16.07;6.75;;;;;;;20.18;80.98;100270.19;125738;1099;102623;-81
2023/08/08 06:07:17;;;;;;;16.90;6.40;;;;;;;20.21;80.39;100272.83;127024;1098;101850;-78
2023/08/08 06:09:54;;;;;;;15.50;6.20;;;;;;;20.24;79.96;100280.80;126468;1098;101930;-79
2023/08/08 06:12:27;;;;;;;15.40;6.53;;;;;;;20.29;80.95;100282.55;126478;1098;101823;-77
2023/08/08 06:14:59;;;;;;;17.57;7.27;;;;;;;20.38;80.31;100289.59;126539;1098;101779;-78
2023/08/08 06:17:31;;;;;;;16.90;6.13;;;;;;;20.39;80.85;100290.47;126476;1098;103294;-77
2023/08/08 06:20:07;;;;;;;19.30;7.13;;;;;;;20.35;80.82;100286.95;126425;1098;102208;-78
2023/08/08 06:22:40;;;;;;;16.63;6.37;;;;;;;20.38;81.02;100283.36;126485;1098;101763;-76
2023/08/08 06:25:23;;;;;;;17.57;6.80;;;;;;;20.43;80.73;100268.24;125450;1099;102374;-76
2023/08/08 06:28:09;;;;;;;16.15;6.25;;;;;;;20.44;81.18;100257.57;126974;1098;101826;-78
2023/08/08 06:30:40;;;;;;;16.47;6.60;;;;;;;20.52;81.50;100259.27;125761;1101;104217;-80
2023/08/08 06:33:20;;;;;;;15.00;6.33;;;;;;;20.60;80.85;100260.06;125676;1099;104273;-76
2023/08/08 06:35:55;;;;;;;21.10;6.20;;;;;;;20.69;80.37;100269.80;125697;1099;104229;-76
2023/08/08 06:38:33;;;;;;;14.03;6.23;;;;;;;20.70;80.54;100269.79;125409;1099;104361;-78
2023/08/08 06:41:12;;;;;;;16.93;6.00;;;;;;;20.73;80.40;100272.42;126457;1098;102293;-77
2023/08/08 06:43:47;;;;;;;12.07;5.03;;;;;;;20.80;81.02;100271.48;126748;1098;102480;-77
2023/08/08 06:46:20;;;;;;;11.50;4.93;;;;;;;20.80;80.81;100276.81;126943;1098;101912;-78
2023/08/08 06:48:56;;;;;;;9.53;4.20;;;;;;;20.85;80.30;100279.44;125162;1099;101839;-78
2023/08/08 06:51:29;;;;;;;10.60;4.20;;;;;;;20.79;80.31;100285.70;125339;1099;104175;-77
2023/08/08 06:54:14;;;;;;;8.63;4.20;;;;;;;20.73;80.38;100280.42;126469;1098;104245;-78
2023/08/08 06:57:04;;;;;;;11.43;4.97;;;;;;;20.65;80.67;100276.95;126422;1098;101979;-76
2023/08/08 06:59:39;;;;;;;12.37;4.30;;;;;;;20.64;80.11;100262.72;124853;1099;102311;-79
2023/08/08 07:02:11;;;;;;;9.67;4.10;;;;;;;20.58;78.99;100276.07;126437;1098;103276;-78
2023/08/08 07:04:45;;;;;;;9.68;3.80;;;;;;;20.50;79.36;100285.92;125584;1098;102108;-76
2023/08/08 07:07:17;;;;;;;11.33;3.83;;;;;;;20.40;79.08;100294.91;126370;1099;104253;-82
2023/08/08 07:09:50;;;;;;;13.67;4.13;;;;;;;20.34;79.71;100308.28;126283;1099;101916;-80
2023/08/08 07:12:37;;;;;;;10.87;4.30;;;;;;;20.34;79.31;100309.16;126185;1099;101906;-78
2023/08/08 07:15:12;;;;;;;13.03;4.20;;;;;;;20.37;79.13;100306.47;126853;1098;104200;-78
2023/08/08 07:17:45;;;;;;;7.03;3.67;;;;;;;20.34;79.67;100311.83;125601;1099;102026;-78
2023/08/08 07:20:17;;;;;;;9.33;4.37;;;;;;;20.26;79.72;100309.21;125805;1099;104249;-78
2023/08/08 07:22:52;;;;;;;9.13;4.20;;;;;;;20.22;79.09;100320.77;125888;1099;101912;-79
2023/08/08 07:25:24;;;;;;;12.87;4.50;;;;;;;20.19;79.28;100323.45;125581;1099;102112;-79
2023/08/08 07:27:56;;;;;;;15.57;5.10;;;;;;;20.16;78.99;100333.26;125775;1099;102048;-79
2023/08/08 07:30:28;;;;;;;12.87;5.20;;;;;;;20.15;78.93;100334.14;125682;1099;101849;-79
2023/08/08 07:33:04;;;;;;;12.20;4.73;;;;;;;20.11;78.91;100339.48;126415;1097;101859;-79
2023/08/08 07:35:35;;;;;;;13.47;5.07;;;;;;;20.06;79.21;100340.43;125489;1099;104162;-80
2023/08/08 07:38:07;;;;;;;10.60;4.67;;;;;;;20.02;79.15;100344.87;125074;1099;102261;-78
2023/08/08 07:40:41;;;;;;;15.97;4.80;;;;;;;20.03;78.92;100346.65;126462;1099;104271;-76
2023/08/08 07:43:16;;;;;;;12.85;4.85;;;;;;;20.04;80.31;100353.75;126893;1098;101794;-86
2023/08/08 07:45:49;;;;;;;10.03;4.00;;;;;;;20.06;79.38;100367.06;125876;1099;104217;-82
2023/08/08 07:48:23;;;;;;;10.30;4.20;;;;;;;20.04;79.52;100375.06;126235;1099;102324;-80
2023/08/08 07:51:29;;;;;;;13.27;4.43;;;;;;;20.03;78.97;100389.26;126071;1098;101688;-81
2023/08/08 07:54:08;;;;;;;12.97;4.20;;;;;;;20.02;79.12;100392.80;125994;1099;102113;-78
2023/08/08 07:56:44;;;;;;;10.73;4.73;;;;;;;20.02;79.07;100392.80;126439;1098;104176;-78
2023/08/08 07:59:19;;;;;;;;;;;;;;;20.03;80.01;100389.26;125392;1099;102105;-78
2023/08/08 08:02:07;;;;;;;13.50;4.90;;;;;;;20.03;79.71;100389.26;126214;1099;112920;-78
2023/08/08 08:04:42;;;;;;;8.13;3.20;;;;;;;20.02;79.46;100395.47;125520;1098;104096;-78
2023/08/08 08:07:20;;;;;;;8.00;3.33;;;;;;;19.98;79.19;100398.19;125620;1099;104159;-80
2023/08/08 08:10:02;;;;;;;9.03;3.20;;;;;;;19.93;78.69;100392.87;125991;1099;101844;-81
2023/08/08 08:12:43;;;;;;;11.77;3.73;;;;;;;19.90;79.46;100385.78;125931;1099;102225;-83
2023/08/08 08:15:16;;;;;;;10.87;3.70;;;;;;;19.91;79.28;100392.89;125663;1099;104217;-82
2023/08/08 08:17:51;;;;;;;6.53;2.73;;;;;;;19.78;78.80;100390.28;125880;1099;102179;-76
2023/08/08 08:20:32;;;;;;;5.67;2.33;;;;;;;19.68;78.62;100387.61;126613;1098;101968;-79
2023/08/08 08:23:13;;;;;;;6.80;2.80;;;;;;;19.68;78.46;100384.05;127018;1098;104179;-81
2023/08/08 08:26:06;;;;;;;7.40;2.90;;;;;;;19.74;79.82;100386.69;125933;1099;101982;-73
2023/08/08 08:28:47;;;;;;;7.97;3.27;;;;;;;19.80;78.96;100380.50;125049;1099;104313;-77
2023/08/08 08:31:21;;;;;;;6.60;2.37;;;;;;;19.85;78.99;100376.94;125048;1099;101837;-78
2023/08/08 08:34:05;;;;;;;6.37;2.63;;;;;;;19.96;79.92;100381.30;124369;1099;104211;-75
2023/08/08 08:36:55;;;;;;;7.30;2.72;;;;;;;20.04;79.15;100376.81;124546;1099;104247;-79
2023/08/08 08:39:37;;;;;;;5.60;2.80;;;;;;;20.19;79.46;100375.86;125808;1099;101898;-80
2023/08/08 08:42:18;;;;;;;6.37;2.80;;;;;;;20.35;79.47;100376.64;124880;1099;104205;-79
2023/08/08 08:44:54;;;;;;;6.60;2.87;;;;;;;20.47;79.69;100372.14;126391;1098;101804;-77
2023/08/08 08:47:34;;;;;;;2.90;2.30;;;;;;;20.55;80.46;100349.86;126123;1099;101790;-80
2023/08/08 08:50:09;;;;;;;8.37;3.63;;;;;;;20.68;79.91;100348.91;126419;1098;101928;-77
2023/08/08 08:52:46;;;;;;;7.93;2.90;;;;;;;20.71;79.83;100334.65;125005;1099;104229;-81
2023/08/08 08:55:26;;;;;;;6.67;2.53;;;;;;;20.80;79.16;100340.81;125979;1099;102101;-77
2023/08/08 08:58:18;;;;;;;;;;;;;;;;;;;;;
2023/08/08 09:01:12;;;;;;;3.50;2.33;;;;;;;20.87;78.83;100311.42;126564;1098;104268;-83
2023/08/08 09:04:07;;;;;;;5.80;2.53;;;;;;;21.03;79.11;100310.34;127643;1098;101604;-78
2023/08/08 09:07:00;;;;;;;6.27;2.57;;;;;;;21.11;78.14;100315.61;127043;1099;104093;-83
2023/08/08 09:09:45;;;;;;;5.73;2.53;;;;;;;21.24;78.66;100324.35;127471;1099;101934;-84
2023/08/08 09:12:25;;;;;;;3.93;2.43;;;;;;;21.32;78.01;100327.84;126547;1099;104150;-80
2023/08/08 09:15:09;;;;;;;7.90;2.97;;;;;;;21.42;78.25;100333.95;126828;1098;104274;-82
2023/08/08 09:17:46;;;;;;;7.03;2.70;;;;;;;21.61;78.67;100339.98;126967;1098;102055;-89
2023/08/08 09:20:20;;;;;;;6.50;3.03;;;;;;;21.70;77.67;100345.20;126420;1099;101747;-89
2023/08/08 09:23:00;;;;;;;5.93;2.83;;;;;;;21.72;77.74;100346.06;126756;1098;102032;-81
2023/08/08 09:25:36;;;;;;;7.97;3.60;;;;;;;21.79;77.71;100349.56;127189;1099;101649;-78
2023/08/08 09:28:10;;;;;;;5.67;2.57;;;;;;;21.80;77.67;100352.21;125910;1098;101961;-80
2023/08/08 09:30:45;;;;;;;4.97;2.33;;;;;;;21.70;76.87;100362.10;126720;1099;101980;-82
2023/08/08 09:33:20;;;;;;;6.90;2.27;;;;;;;21.60;76.04;100363.14;125827;1099;101593;-88
2023/08/08 09:35:56;;;;;;;5.07;2.70;;;;;;;21.60;75.83;100367.56;125786;1102;104306;-85
2023/08/08 09:38:28;;;;;;;5.17;2.80;;;;;;;21.53;75.85;100365.00;126409;1098;104503;-78
2023/08/08 09:41:06;;;;;;;9.83;2.93;;;;;;;21.48;75.47;100372.13;125403;1099;102122;-79
2023/08/08 09:43:41;;;;;;;5.33;2.43;;;;;;;21.43;74.81;100376.64;126326;1098;104233;-77
2023/08/08 09:46:15;;;;;;;5.33;2.33;;;;;;;21.39;74.18;100376.69;124965;1099;101918;-79
2023/08/08 09:48:50;;;;;;;5.85;2.80;;;;;;;21.34;73.99;100374.06;124669;1099;102001;-77
2023/08/08 09:51:29;;;;;;;4.37;2.50;;;;;;;21.34;73.36;100384.74;126892;1098;101849;-81
2023/08/08 09:54:22;;;;;;;4.27;2.47;;;;;;;21.34;73.88;100382.08;126785;1098;101772;-81
2023/08/08 09:56:56;;;;;;;4.67;2.10;;;;;;;21.33;73.47;100382.97;126806;1099;104169;-80
2023/08/08 09:59:29;;;;;;;5.30;2.57;;;;;;;21.34;73.25;100374.06;126900;1098;104175;-80
2023/08/08 10:02:06;;;;;;;3.00;2.17;;;;;;;21.36;72.69;100380.27;126632;1098;101921;-82
2023/08/08 10:04:43;;;;;;;4.17;2.33;;;;;;;21.38;72.91;100383.83;126562;1099;107454;-83
2023/08/08 10:07:20;;;;;;;3.33;2.20;;;;;;;21.42;72.81;100381.99;126143;1099;101835;-82
2023/08/08 10:09:57;;;;;;;5.07;2.23;;;;;;;21.47;73.04;100386.39;125438;1099;104163;-79
2023/08/08 10:12:36;;;;;;;5.00;2.83;;;;;;;21.54;71.86;100389.91;125601;1098;104251;-75
2023/08/08 10:15:13;;;;;;;3.70;2.10;;;;;;;21.53;72.32;100391.70;124907;1099;102108;-76
2023/08/08 10:17:47;;;;;;;4.77;2.17;;;;;;;21.48;71.88;100404.16;125280;1098;104386;-79
2023/08/08 10:20:25;;;;;;;2.90;1.90;;;;;;;21.43;71.31;100406.00;125481;1099;104097;-78
2023/08/08 10:23:08;;;;;;;3.57;2.37;;;;;;;21.41;71.12;100407.81;126291;1098;101805;-79
2023/08/08 10:25:48;;;;;;;6.67;2.20;;;;;;;21.37;71.47;100414.07;125317;1098;104220;-78
2023/08/08 10:28:28;;;;;;;4.03;2.10;;;;;;;21.29;70.20;100414.14;125242;1099;104236;-78
2023/08/08 10:31:04;;;;;;;6.23;2.43;;;;;;;21.22;70.91;100415.09;125898;1099;104335;-81
2023/08/08 10:33:45;;;;;;;3.97;1.93;;;;;;;21.21;71.05;100417.77;125546;1099;103302;-84
2023/08/08 10:36:18;;;;;;;3.97;2.23;;;;;;;21.23;70.71;100422.20;124946;1099;101868;-80
2023/08/08 10:38:52;;;;;;;2.60;2.10;;;;;;;21.21;69.69;100428.45;124847;1099;104285;-78
2023/08/08 10:41:27;;;;;;;4.53;2.30;;;;;;;21.10;69.91;100434.78;125073;1099;102022;-77
2023/08/08 10:44:03;;;;;;;3.63;1.90;;;;;;;21.07;69.90;100434.81;125653;1099;104166;-83
2023/08/08 10:46:41;;;;;;;4.93;2.03;;;;;;;21.05;69.73;100431.28;125075;1099;104252;-79
2023/08/08 10:49:16;;;;;;;4.57;2.40;;;;;;;21.01;70.67;100434.86;125343;1098;104229;-78
2023/08/08 10:51:55;;;;;;;3.87;2.40;;;;;;;20.99;69.92;100431.33;125831;1099;101879;-80
2023/08/08 10:54:33;;;;;;;5.30;2.13;;;;;;;20.96;69.89;100428.69;125361;1099;104179;-79
2023/08/08 10:57:21;;;;;;;3.43;2.40;;;;;;;20.91;70.38;100422.48;124851;1102;104216;-77
2023/08/08 11:00:17;;;;;;;4.87;2.50;;;;;;;20.95;70.64;100421.57;125501;1099;104173;-79
2023/08/08 11:02:51;;;;;;;4.60;2.40;;;;;;;20.94;70.17;100414.45;125487;1099;104329;-79
2023/08/08 11:05:27;;;;;;;3.63;2.33;;;;;;;20.91;70.16;100407.39;125916;1099;104159;-77
2023/08/08 11:08:01;;;;;;;4.10;2.20;;;;;;;20.91;70.08;100403.81;126369;1098;101939;-79
2023/08/08 11:10:40;;;;;;;5.10;2.50;;;;;;;20.90;70.29;100396.73;126406;1098;104265;-78
2023/08/08 11:13:13;;;;;;;4.70;2.60;;;;;;;20.90;69.41;100397.61;125810;1098;104105;-77
2023/08/08 11:15:53;;;;;;;5.83;2.63;;;;;;;20.91;69.43;100403.81;125531;1098;104175;-83
2023/08/08 11:18:47;;;;;;;7.80;3.00;;;;;;;20.92;69.45;100409.13;126729;1098;101649;-80
2023/08/08 11:21:20;;;;;;;5.30;2.63;;;;;;;20.96;70.37;100418.89;126442;1098;101908;-80
2023/08/08 11:24:08;;;;;;;5.30;2.60;;;;;;;21.00;70.19;100423.31;126480;1099;104351;-77
2023/08/08 11:26:47;;;;;;;7.33;2.60;;;;;;;20.99;69.78;100423.33;126342;1099;104198;-81
2023/08/08 11:29:18;;;;;;;3.87;2.40;;;;;;;20.96;70.33;100431.36;125284;1100;104242;-79
2023/08/08 11:31:54;;;;;;;4.97;2.53;;;;;;;20.94;69.33;100433.13;125260;1099;102057;-80
2023/08/08 11:34:43;;;;;;;8.00;2.80;;;;;;;20.90;70.00;100420.73;125696;1098;101953;-78
2023/08/08 11:40:12;;;;;;;4.90;2.33;;;;;;;20.82;70.39;100426.13;125967;1099;102378;-77
2023/08/08 11:42:47;;;;;;;7.33;2.80;;;;;;;20.74;70.41;100430.61;125669;1098;102204;-79
2023/08/08 11:45:28;;;;;;;5.17;3.00;;;;;;;20.65;70.08;100424.45;126176;1099;104169;-83
2023/08/08 11:48:04;;;;;;;9.47;3.13;;;;;;;20.59;70.08;100429.80;126041;1099;104175;-77
2023/08/08 11:50:49;;;;;;;7.23;2.77;;;;;;;20.56;70.89;100427.14;127160;1099;101881;-78